Terminal Aerodrome Forecast
Issued by NWS Lake Charles, LA

Home | Current Version | Previous Version | Text Only | Print | Product List | Glossary On
Versions: 1 2 3 4 5 6 7 8 9 10 11 12 13 14 15 16 17 18
000
FTUS44 KLCH 182320
TAFLFT
TAF
KLFT 182320Z 1900/1924 18011KT P6SM FEW025 SCT035
     FM190400 17004KT 4SM BR OVC014
     FM190700 17003KT 2SM BR OVC005
      TEMPO 1910/1914 1/2SM FG OVC002
     FM191500 16007KT 4SM BR OVC007
     FM191800 18012G18KT P6SM OVC050=

USA.gov is the U.S. government's official web portal to all federal, state and local government web resources and services.